Time;durP1;ratioP1;P1;durP2;ratioP2;P2;SDS_P1;SDS_P2;PMS_P1;PMS_P2;Temp;Humidity;BMP_temperature;BMP_pressure;BME280_temperature;BME280_humidity;BME280_pressure;Samples;Min_cycle;Max_cycle;Signal;HPM_P1;HPM_P2
2024/01/18 00:01:34;;;;;;;31.87;19.13;;;;;;;;;;5102791;28;20015;-74
2024/01/18 00:03:59;;;;;;;31.60;18.07;;;;;;;;;;5104116;28;20325;-74
2024/01/18 00:06:25;;;;;;;28.50;17.98;;;;;;;;;;5104857;28;20264;-74
2024/01/18 00:08:50;;;;;;;29.88;18.25;;;;;;;;;;5102076;28;20734;-74
2024/01/18 00:11:15;;;;;;;29.30;18.07;;;;;;;;;;5104497;28;20016;-74
2024/01/18 00:13:41;;;;;;;30.92;18.55;;;;;;;;;;5104829;28;20284;-74
2024/01/18 00:16:06;;;;;;;29.77;18.33;;;;;;;;;;5100499;28;20074;-74
2024/01/18 00:18:31;;;;;;;28.93;18.00;;;;;;;;;;5104652;28;20034;-74
2024/01/18 00:20:56;;;;;;;29.80;18.02;;;;;;;;;;5101652;28;20261;-74
2024/01/18 00:23:21;;;;;;;30.23;17.77;;;;;;;;;;5103696;28;20119;-74
2024/01/18 00:25:47;;;;;;;30.73;17.40;;;;;;;;;;5103543;28;20270;-74
2024/01/18 00:28:12;;;;;;;32.13;18.00;;;;;;;;;;5102454;28;20107;-74
2024/01/18 00:30:37;;;;;;;30.45;18.73;;;;;;;;;;5103785;28;20273;-74
2024/01/18 00:33:03;;;;;;;31.95;18.75;;;;;;;;;;5102250;28;20057;-74
2024/01/18 00:35:28;;;;;;;32.40;19.00;;;;;;;;;;5103471;28;20052;-74
2024/01/18 00:37:53;;;;;;;31.83;18.07;;;;;;;;;;5103798;28;20031;-74
2024/01/18 00:40:18;;;;;;;31.55;18.73;;;;;;;;;;5100536;28;20391;-74
2024/01/18 00:42:43;;;;;;;29.40;18.25;;;;;;;;;;5107120;28;20016;-74
2024/01/18 00:45:09;;;;;;;34.03;18.53;;;;;;;;;;5099935;28;20020;-74
2024/01/18 00:47:34;;;;;;;29.95;18.80;;;;;;;;;;5108178;28;20262;-74
2024/01/18 00:50:00;;;;;;;30.95;18.85;;;;;;;;;;5100615;28;20016;-74
2024/01/18 00:52:25;;;;;;;30.77;19.38;;;;;;;;;;5107421;28;20024;-74
2024/01/18 00:54:51;;;;;;;33.15;19.60;;;;;;;;;;5101809;28;20030;-74
2024/01/18 00:57:16;;;;;;;28.58;19.05;;;;;;;;;;5106119;28;20479;-74
2024/01/18 00:59:41;;;;;;;30.87;19.63;;;;;;;;;;5101533;28;20063;-74
2024/01/18 01:02:06;;;;;;;34.50;19.70;;;;;;;;;;5104274;28;20793;-74
2024/01/18 01:04:31;;;;;;;31.73;19.63;;;;;;;;;;5104131;28;20034;-74
2024/01/18 01:06:56;;;;;;;30.52;19.15;;;;;;;;;;5102167;28;20266;-74
2024/01/18 01:09:22;;;;;;;29.80;18.80;;;;;;;;;;5103916;28;20371;-74
2024/01/18 01:11:47;;;;;;;32.97;19.57;;;;;;;;;;5102706;28;20323;-74
2024/01/18 01:14:12;;;;;;;34.85;20.48;;;;;;;;;;5100062;28;20270;-74
2024/01/18 01:16:37;;;;;;;32.30;20.45;;;;;;;;;;5105202;28;20485;-74
2024/01/18 01:19:02;;;;;;;29.23;18.73;;;;;;;;;;5101227;28;20032;-74
2024/01/18 01:21:28;;;;;;;31.53;18.73;;;;;;;;;;5103329;28;20411;-74
2024/01/18 01:23:56;;;;;;;31.38;19.48;;;;;;;;;;5103313;28;20772;-74
2024/01/18 01:26:21;;;;;;;33.70;19.13;;;;;;;;;;5100838;28;20510;-74
2024/01/18 01:28:48;;;;;;;31.73;20.20;;;;;;;;;;5103503;28;20153;-74
2024/01/18 01:31:13;;;;;;;31.00;19.25;;;;;;;;;;5101861;28;20258;-75
2024/01/18 01:33:41;;;;;;;31.23;19.20;;;;;;;;;;5103197;28;20519;-75
2024/01/18 01:36:07;;;;;;;32.38;19.45;;;;;;;;;;5102287;28;20276;-74
2024/01/18 01:38:32;;;;;;;31.43;19.03;;;;;;;;;;5105496;28;20019;-74
2024/01/18 01:40:58;;;;;;;31.85;20.00;;;;;;;;;;5099696;28;20292;-74
2024/01/18 01:43:23;;;;;;;32.05;19.83;;;;;;;;;;5100947;28;20027;-74
2024/01/18 01:45:48;;;;;;;31.95;19.90;;;;;;;;;;5103290;28;20030;-74
2024/01/18 01:48:13;;;;;;;34.95;20.52;;;;;;;;;;5109816;28;20022;-74
2024/01/18 01:50:39;;;;;;;32.50;19.30;;;;;;;;;;5101140;28;20026;-74
2024/01/18 01:53:04;;;;;;;33.28;19.85;;;;;;;;;;5107015;28;20099;-74
2024/01/18 01:55:30;;;;;;;31.50;19.02;;;;;;;;;;5106498;28;20022;-74
2024/01/18 01:57:55;;;;;;;34.65;19.25;;;;;;;;;;5105864;28;20487;-74
2024/01/18 02:00:21;;;;;;;31.90;19.83;;;;;;;;;;5107128;28;20054;-74
2024/01/18 02:02:46;;;;;;;34.60;19.85;;;;;;;;;;5105057;28;20018;-74
2024/01/18 02:05:12;;;;;;;33.92;20.15;;;;;;;;;;5107040;28;20055;-74
2024/01/18 02:07:38;;;;;;;31.05;19.30;;;;;;;;;;5106382;28;20064;-74
2024/01/18 02:10:04;;;;;;;39.72;19.48;;;;;;;;;;5105466;28;20459;-74
2024/01/18 02:12:29;;;;;;;37.25;20.55;;;;;;;;;;5106758;28;20023;-74
2024/01/18 02:14:54;;;;;;;31.67;19.48;;;;;;;;;;5105615;28;20087;-74
2024/01/18 02:17:19;;;;;;;31.63;19.88;;;;;;;;;;5106260;28;20030;-74
2024/01/18 02:19:45;;;;;;;34.58;21.75;;;;;;;;;;5104985;28;20425;-74
2024/01/18 02:22:11;;;;;;;34.30;20.77;;;;;;;;;;5105168;28;20032;-74
2024/01/18 02:24:48;;;;;;;29.27;19.70;;;;;;;;;;5106521;27;20049;-74
2024/01/18 02:27:13;;;;;;;32.30;20.33;;;;;;;;;;5105120;28;20435;-74
2024/01/18 02:29:38;;;;;;;31.57;20.97;;;;;;;;;;5105912;28;20076;-74
2024/01/18 02:32:04;;;;;;;31.10;20.20;;;;;;;;;;5103931;28;20266;-74
2024/01/18 02:34:29;;;;;;;37.03;20.00;;;;;;;;;;5106460;28;20034;-74
2024/01/18 02:36:54;;;;;;;29.70;19.23;;;;;;;;;;5105141;28;20044;-74
2024/01/18 02:39:19;;;;;;;34.08;19.75;;;;;;;;;;5104028;28;20266;-74
2024/01/18 02:41:45;;;;;;;32.40;20.50;;;;;;;;;;5108003;28;20038;-74
2024/01/18 02:44:11;;;;;;;34.95;19.92;;;;;;;;;;5102258;28;20066;-74
2024/01/18 02:46:36;;;;;;;34.70;20.85;;;;;;;;;;5109706;28;20047;-74
2024/01/18 02:49:01;;;;;;;34.30;20.48;;;;;;;;;;5102284;28;20479;-74
2024/01/18 02:51:26;;;;;;;33.93;19.97;;;;;;;;;;5109851;28;20024;-74
2024/01/18 02:53:51;;;;;;;34.08;20.42;;;;;;;;;;5102426;28;20274;-74
2024/01/18 02:56:17;;;;;;;33.00;19.70;;;;;;;;;;5112825;28;20076;-74
2024/01/18 02:58:42;;;;;;;33.33;20.47;;;;;;;;;;5103051;28;20142;-74
2024/01/18 03:01:09;;;;;;;34.50;20.47;;;;;;;;;;5107155;28;20613;-74
2024/01/18 03:03:34;;;;;;;34.78;20.23;;;;;;;;;;5104883;28;20297;-74
2024/01/18 03:06:00;;;;;;;36.47;21.13;;;;;;;;;;5104069;28;20534;-74
2024/01/18 03:08:25;;;;;;;35.28;20.83;;;;;;;;;;5105954;28;20040;-74
2024/01/18 03:10:50;;;;;;;39.47;20.73;;;;;;;;;;5105126;28;20031;-74
2024/01/18 03:13:15;;;;;;;33.50;20.40;;;;;;;;;;5104997;28;20269;-74
2024/01/18 03:15:40;;;;;;;35.87;20.43;;;;;;;;;;5105545;28;20268;-74
2024/01/18 03:18:06;;;;;;;34.57;20.50;;;;;;;;;;5105196;28;20312;-74
2024/01/18 03:20:32;;;;;;;34.17;20.80;;;;;;;;;;5104759;28;20265;-74
2024/01/18 03:22:57;;;;;;;33.63;20.65;;;;;;;;;;5102173;28;20027;-74
2024/01/18 03:25:22;;;;;;;34.87;20.70;;;;;;;;;;5105233;28;20034;-74
2024/01/18 03:27:47;;;;;;;33.17;20.13;;;;;;;;;;5103472;28;20616;-74
2024/01/18 03:30:12;;;;;;;32.53;19.60;;;;;;;;;;5103198;28;20379;-74
2024/01/18 03:32:38;;;;;;;33.65;20.13;;;;;;;;;;5104631;28;20297;-74
2024/01/18 03:35:03;;;;;;;33.58;20.02;;;;;;;;;;5103126;28;20368;-74
2024/01/18 03:37:28;;;;;;;37.47;19.83;;;;;;;;;;5104827;28;20032;-74
2024/01/18 03:39:53;;;;;;;36.40;21.47;;;;;;;;;;5104338;28;20032;-74
2024/01/18 03:42:18;;;;;;;32.20;19.73;;;;;;;;;;5102574;28;20258;-74
2024/01/18 03:44:44;;;;;;;34.43;21.17;;;;;;;;;;5106996;28;20454;-74
2024/01/18 03:47:09;;;;;;;33.28;20.85;;;;;;;;;;5103568;28;20266;-74
2024/01/18 03:49:34;;;;;;;33.03;20.05;;;;;;;;;;5102040;28;20016;-74
2024/01/18 03:51:59;;;;;;;37.92;19.88;;;;;;;;;;5103046;28;20015;-74
2024/01/18 03:54:24;;;;;;;35.15;21.27;;;;;;;;;;5101250;28;20196;-74
2024/01/18 03:56:50;;;;;;;32.83;20.53;;;;;;;;;;5101841;28;20044;-74
2024/01/18 03:59:15;;;;;;;31.70;20.43;;;;;;;;;;5103276;28;20289;-74
2024/01/18 04:01:40;;;;;;;31.58;19.88;;;;;;;;;;5101764;28;20744;-74
2024/01/18 04:04:05;;;;;;;36.95;19.95;;;;;;;;;;5105105;28;20038;-74
2024/01/18 04:06:31;;;;;;;35.55;19.70;;;;;;;;;;5103318;28;20020;-74
2024/01/18 04:08:56;;;;;;;32.45;19.88;;;;;;;;;;5106879;28;20524;-74
2024/01/18 04:11:21;;;;;;;35.55;19.38;;;;;;;;;;5101044;28;20379;-74
2024/01/18 04:13:47;;;;;;;31.05;18.73;;;;;;;;;;5109472;28;20020;-74
2024/01/18 04:16:12;;;;;;;32.90;19.98;;;;;;;;;;5100068;28;20020;-74
2024/01/18 04:18:37;;;;;;;31.90;18.98;;;;;;;;;;5109966;28;20057;-74
2024/01/18 04:21:02;;;;;;;32.80;19.57;;;;;;;;;;5100950;28;20394;-74
2024/01/18 04:23:28;;;;;;;30.50;18.77;;;;;;;;;;5100484;28;20262;-74
2024/01/18 04:25:54;;;;;;;34.85;20.27;;;;;;;;;;5106518;28;20023;-74
2024/01/18 04:28:19;;;;;;;30.48;18.15;;;;;;;;;;5101338;28;20016;-74
2024/01/18 04:30:44;;;;;;;31.45;18.25;;;;;;;;;;5105865;28;20019;-74
2024/01/18 04:33:09;;;;;;;35.50;21.00;;;;;;;;;;5100940;28;20031;-74
2024/01/18 04:35:35;;;;;;;32.70;19.57;;;;;;;;;;5105316;28;20018;-74
2024/01/18 04:38:00;;;;;;;30.63;19.55;;;;;;;;;;5101427;28;21125;-74
2024/01/18 04:40:25;;;;;;;29.45;18.52;;;;;;;;;;5103281;28;20504;-74
2024/01/18 04:42:50;;;;;;;34.08;18.65;;;;;;;;;;5103720;28;20020;-74
2024/01/18 04:45:15;;;;;;;31.23;18.83;;;;;;;;;;5101638;28;20034;-74
2024/01/18 04:47:41;;;;;;;34.78;18.90;;;;;;;;;;5104197;28;20020;-74
2024/01/18 04:50:08;;;;;;;30.88;19.10;;;;;;;;;;5102529;28;20019;-74
2024/01/18 04:52:33;;;;;;;33.78;20.35;;;;;;;;;;5103993;28;20103;-74
2024/01/18 04:55:02;;;;;;;30.58;19.35;;;;;;;;;;5103552;28;20020;-73
2024/01/18 04:57:28;;;;;;;34.45;18.85;;;;;;;;;;5104743;28;20048;-74
2024/01/18 04:59:53;;;;;;;31.55;19.05;;;;;;;;;;5103564;28;20360;-74
2024/01/18 05:02:19;;;;;;;32.53;19.85;;;;;;;;;;5103553;28;20055;-74
2024/01/18 05:04:44;;;;;;;31.92;18.00;;;;;;;;;;5102855;28;20395;-74
2024/01/18 05:07:10;;;;;;;31.55;18.85;;;;;;;;;;5103790;28;20012;-74
2024/01/18 05:09:36;;;;;;;33.60;19.25;;;;;;;;;;5103389;28;20020;-74
2024/01/18 05:12:01;;;;;;;34.92;18.23;;;;;;;;;;5103173;28;20098;-74
2024/01/18 05:14:26;;;;;;;30.73;17.87;;;;;;;;;;5103736;28;20016;-74
2024/01/18 05:16:53;;;;;;;29.03;18.03;;;;;;;;;;5103581;28;20741;-74
2024/01/18 05:19:18;;;;;;;30.52;18.58;;;;;;;;;;5104847;28;20286;-74
2024/01/18 05:21:43;;;;;;;31.23;18.23;;;;;;;;;;5101434;28;20066;-74
2024/01/18 05:24:08;;;;;;;29.63;17.87;;;;;;;;;;5103824;28;20024;-74
2024/01/18 05:26:34;;;;;;;40.23;17.90;;;;;;;;;;5101170;28;20339;-74
2024/01/18 05:28:59;;;;;;;32.37;17.57;;;;;;;;;;5106824;28;20270;-74
2024/01/18 05:31:25;;;;;;;35.38;18.83;;;;;;;;;;5107704;28;20274;-74
2024/01/18 05:33:50;;;;;;;31.05;18.15;;;;;;;;;;5104226;28;20020;-74
2024/01/18 05:36:15;;;;;;;32.95;18.73;;;;;;;;;;5109809;28;20455;-74
2024/01/18 05:38:41;;;;;;;29.60;17.60;;;;;;;;;;5104568;28;20340;-73
2024/01/18 05:41:07;;;;;;;34.40;18.67;;;;;;;;;;5109539;28;20262;-74
2024/01/18 05:43:32;;;;;;;32.00;17.63;;;;;;;;;;5104128;28;20055;-74
2024/01/18 05:45:57;;;;;;;33.43;17.93;;;;;;;;;;5110551;28;20148;-74
2024/01/18 05:48:22;;;;;;;32.70;17.48;;;;;;;;;;5103418;28;20258;-73
2024/01/18 05:50:47;;;;;;;29.50;17.07;;;;;;;;;;5103479;28;20039;-73
2024/01/18 05:53:12;;;;;;;30.40;18.40;;;;;;;;;;5111402;28;20352;-74
2024/01/18 05:55:38;;;;;;;31.15;17.20;;;;;;;;;;5105887;28;20288;-73
2024/01/18 05:58:03;;;;;;;30.55;16.67;;;;;;;;;;5110611;28;20427;-74
2024/01/18 06:00:28;;;;;;;30.27;17.05;;;;;;;;;;5104212;28;20055;-73
2024/01/18 06:02:53;;;;;;;33.95;17.60;;;;;;;;;;5108781;28;20012;-74
2024/01/18 06:05:18;;;;;;;28.40;16.98;;;;;;;;;;5106745;28;20049;-74
2024/01/18 06:07:44;;;;;;;31.57;17.50;;;;;;;;;;5105857;28;20450;-74
2024/01/18 06:10:09;;;;;;;26.03;16.40;;;;;;;;;;5106709;28;20318;-74
2024/01/18 06:12:34;;;;;;;29.92;16.30;;;;;;;;;;5106368;28;20745;-73
2024/01/18 06:15:00;;;;;;;26.43;15.97;;;;;;;;;;5105952;28;20034;-73
2024/01/18 06:17:25;;;;;;;27.15;16.55;;;;;;;;;;5106889;28;20261;-73
2024/01/18 06:19:51;;;;;;;29.20;17.77;;;;;;;;;;5103537;28;20479;-73
2024/01/18 06:22:16;;;;;;;29.52;16.88;;;;;;;;;;5106076;28;20356;-73
2024/01/18 06:24:41;;;;;;;27.58;15.88;;;;;;;;;;5103728;28;20058;-73
2024/01/18 06:27:06;;;;;;;32.00;17.20;;;;;;;;;;5106929;28;20347;-73
2024/01/18 06:29:31;;;;;;;25.60;16.37;;;;;;;;;;5104532;28;20098;-74
2024/01/18 06:31:57;;;;;;;29.48;16.65;;;;;;;;;;5105060;28;20274;-73
2024/01/18 06:34:22;;;;;;;27.45;16.55;;;;;;;;;;5106456;28;20031;-73
2024/01/18 06:36:47;;;;;;;25.27;15.77;;;;;;;;;;5103189;28;20028;-74
2024/01/18 06:39:14;;;;;;;27.73;16.15;;;;;;;;;;5106238;28;20625;-73
2024/01/18 06:41:39;;;;;;;32.03;16.55;;;;;;;;;;5106305;28;20024;-73
2024/01/18 06:44:05;;;;;;;31.38;16.05;;;;;;;;;;5103020;28;20088;-73
2024/01/18 06:46:31;;;;;;;31.38;17.42;;;;;;;;;;5108107;28;20024;-74
2024/01/18 06:48:57;;;;;;;29.92;16.33;;;;;;;;;;5102676;28;20034;-73
2024/01/18 06:51:22;;;;;;;25.45;15.35;;;;;;;;;;5107259;28;20023;-73
2024/01/18 06:53:47;;;;;;;28.25;15.43;;;;;;;;;;5107616;27;20524;-74
2024/01/18 06:56:13;;;;;;;23.88;14.45;;;;;;;;;;5106117;28;20073;-73
2024/01/18 06:58:39;;;;;;;26.25;14.48;;;;;;;;;;5113310;28;20044;-73
2024/01/18 07:01:04;;;;;;;29.83;15.75;;;;;;;;;;5103591;28;20069;-73
2024/01/18 07:03:30;;;;;;;27.77;16.25;;;;;;;;;;5110771;28;20057;-73
2024/01/18 07:05:56;;;;;;;30.23;15.70;;;;;;;;;;5101902;28;20028;-74
2024/01/18 07:08:21;;;;;;;26.55;14.27;;;;;;;;;;5102782;28;20474;-73
2024/01/18 07:10:48;;;;;;;28.73;15.57;;;;;;;;;;5101505;28;20058;-73
2024/01/18 07:13:13;;;;;;;27.02;14.85;;;;;;;;;;5094225;28;20024;-73
2024/01/18 07:15:38;;;;;;;26.25;14.65;;;;;;;;;;5108033;28;20027;-73
2024/01/18 07:18:03;;;;;;;28.93;15.97;;;;;;;;;;5101499;28;20020;-73
2024/01/18 07:20:29;;;;;;;24.90;16.17;;;;;;;;;;5108137;28;20266;-73
2024/01/18 07:22:54;;;;;;;26.43;15.17;;;;;;;;;;5102120;28;20020;-73
2024/01/18 07:25:19;;;;;;;28.73;15.60;;;;;;;;;;5105462;28;20292;-73
2024/01/18 07:27:44;;;;;;;29.70;15.75;;;;;;;;;;5104023;28;20022;-73
2024/01/18 07:30:10;;;;;;;27.05;15.23;;;;;;;;;;5104299;28;20110;-73
2024/01/18 07:32:35;;;;;;;30.48;16.83;;;;;;;;;;5104687;28;20020;-73
2024/01/18 07:35:00;;;;;;;25.63;14.95;;;;;;;;;;5102437;28;20088;-73
2024/01/18 07:37:27;;;;;;;29.98;15.50;;;;;;;;;;5105182;28;20016;-73
2024/01/18 07:39:52;;;;;;;25.45;14.93;;;;;;;;;;5102301;28;20041;-73
2024/01/18 07:42:17;;;;;;;33.67;15.32;;;;;;;;;;5105348;28;20095;-73
2024/01/18 07:44:44;;;;;;;33.08;18.05;;;;;;;;;;5104661;28;20031;-73
2024/01/18 07:47:10;;;;;;;27.00;14.90;;;;;;;;;;5102581;28;20008;-73
2024/01/18 07:49:35;;;;;;;25.75;14.82;;;;;;;;;;5099705;28;20069;-73
2024/01/18 07:52:01;;;;;;;30.75;15.35;;;;;;;;;;5103281;28;20466;-73
2024/01/18 07:54:27;;;;;;;27.67;14.77;;;;;;;;;;5103789;28;20077;-73
2024/01/18 07:56:52;;;;;;;24.33;15.75;;;;;;;;;;5107144;28;20047;-73
2024/01/18 07:59:18;;;;;;;30.48;15.77;;;;;;;;;;5104381;28;20019;-73
2024/01/18 08:01:45;;;;;;;28.52;16.02;;;;;;;;;;5103865;28;20020;-73
2024/01/18 08:04:10;;;;;;;27.73;16.77;;;;;;;;;;5105023;28;20043;-73
2024/01/18 08:06:35;;;;;;;26.23;15.15;;;;;;;;;;5104037;28;20031;-73
2024/01/18 08:09:00;;;;;;;25.35;15.57;;;;;;;;;;5103559;28;20028;-73
2024/01/18 08:11:25;;;;;;;25.60;15.85;;;;;;;;;;5102117;28;20013;-73
2024/01/18 08:13:51;;;;;;;25.13;15.02;;;;;;;;;;5103973;28;20012;-73
2024/01/18 08:16:17;;;;;;;27.88;15.65;;;;;;;;;;5102959;28;20024;-73
2024/01/18 08:18:42;;;;;;;25.00;15.65;;;;;;;;;;5102682;28;20055;-73
2024/01/18 08:21:07;;;;;;;26.23;16.23;;;;;;;;;;5104333;28;20080;-73
2024/01/18 08:23:32;;;;;;;28.97;16.40;;;;;;;;;;5101175;28;20273;-73
2024/01/18 08:25:57;;;;;;;31.60;15.90;;;;;;;;;;5106916;28;20357;-73
2024/01/18 08:28:23;;;;;;;26.90;15.73;;;;;;;;;;5100587;28;20262;-73
2024/01/18 08:30:48;;;;;;;33.30;15.52;;;;;;;;;;5107009;28;20297;-73
2024/01/18 08:33:14;;;;;;;29.92;16.48;;;;;;;;;;5101056;28;20020;-73
2024/01/18 08:35:39;;;;;;;27.42;15.85;;;;;;;;;;5106069;28;20012;-73
2024/01/18 08:38:04;;;;;;;25.92;14.85;;;;;;;;;;5101505;28;20020;-73
2024/01/18 08:40:30;;;;;;;26.52;15.70;;;;;;;;;;5104795;28;20022;-73
2024/01/18 08:42:56;;;;;;;27.42;15.25;;;;;;;;;;5102706;28;20024;-74
2024/01/18 08:45:21;;;;;;;29.23;16.52;;;;;;;;;;5102594;28;20038;-73
2024/01/18 08:47:47;;;;;;;24.90;15.40;;;;;;;;;;5104059;28;20020;-73
2024/01/18 08:50:15;;;;;;;26.40;16.17;;;;;;;;;;5101882;28;20015;-73
2024/01/18 08:52:40;;;;;;;33.75;17.25;;;;;;;;;;5105904;28;20363;-73
2024/01/18 08:55:06;;;;;;;28.45;16.27;;;;;;;;;;5103554;28;20019;-73
2024/01/18 08:57:31;;;;;;;26.30;16.80;;;;;;;;;;5111245;28;20039;-73
2024/01/18 08:59:56;;;;;;;33.92;16.95;;;;;;;;;;5103990;28;20031;-73
2024/01/18 09:02:21;;;;;;;29.27;17.45;;;;;;;;;;5105587;28;20030;-73
2024/01/18 09:04:47;;;;;;;31.85;17.50;;;;;;;;;;5106890;28;20038;-73
2024/01/18 09:07:12;;;;;;;29.33;17.85;;;;;;;;;;5108239;28;20059;-73
2024/01/18 09:09:37;;;;;;;30.40;18.42;;;;;;;;;;5105210;28;20026;-73
2024/01/18 09:12:02;;;;;;;27.42;16.45;;;;;;;;;;5107227;28;20019;-73
2024/01/18 09:14:28;;;;;;;31.35;18.70;;;;;;;;;;5105395;28;20495;-73
2024/01/18 09:16:53;;;;;;;28.63;17.87;;;;;;;;;;5108021;28;20668;-73
2024/01/18 09:19:20;;;;;;;31.65;18.35;;;;;;;;;;5106419;28;20261;-73
2024/01/18 09:21:46;;;;;;;26.48;17.35;;;;;;;;;;5106627;28;20020;-73
2024/01/18 09:24:12;;;;;;;27.52;17.85;;;;;;;;;;5107273;28;20024;-73
2024/01/18 09:26:37;;;;;;;29.25;17.83;;;;;;;;;;5105359;28;20024;-73
2024/01/18 09:29:02;;;;;;;27.10;17.10;;;;;;;;;;5107334;28;20030;-73
2024/01/18 09:31:28;;;;;;;26.30;16.58;;;;;;;;;;5106602;28;20276;-73
2024/01/18 09:33:53;;;;;;;24.10;16.45;;;;;;;;;;5105404;28;20028;-73
2024/01/18 09:36:18;;;;;;;24.77;16.13;;;;;;;;;;5109340;28;20344;-73
2024/01/18 09:38:44;;;;;;;24.50;13.90;;;;;;;;;;5103453;28;20350;-74
2024/01/18 09:41:19;;;;;;;22.33;14.43;;;;;;;;;;5111170;28;20016;-73
2024/01/18 09:43:45;;;;;;;24.80;15.05;;;;;;;;;;5104258;28;20020;-73
2024/01/18 09:46:11;;;;;;;27.25;15.60;;;;;;;;;;5110559;28;20038;-73
2024/01/18 09:48:37;;;;;;;22.63;14.45;;;;;;;;;;5104363;28;20099;-74
2024/01/18 09:51:04;;;;;;;21.83;14.63;;;;;;;;;;5104083;28;20103;-73
2024/01/18 09:53:30;;;;;;;21.17;14.25;;;;;;;;;;5111106;28;20020;-74
2024/01/18 09:55:59;;;;;;;27.60;14.00;;;;;;;;;;5106089;28;20020;-74
2024/01/18 09:58:24;;;;;;;18.15;12.98;;;;;;;;;;5111107;28;20047;-73
2024/01/18 10:00:55;;;;;;;22.35;13.65;;;;;;;;;;5101763;28;20028;-74
2024/01/18 10:03:21;;;;;;;18.65;12.13;;;;;;;;;;5111334;28;20028;-74
2024/01/18 10:05:46;;;;;;;17.38;11.45;;;;;;;;;;5102458;28;20043;-74
2024/01/18 10:08:12;;;;;;;18.35;12.05;;;;;;;;;;5102007;28;20020;-74
2024/01/18 10:10:37;;;;;;;16.65;10.85;;;;;;;;;;5108509;28;20032;-74
2024/01/18 10:13:03;;;;;;;16.15;10.20;;;;;;;;;;5101716;28;20387;-74
2024/01/18 10:15:32;;;;;;;18.77;10.13;;;;;;;;;;5107484;28;20019;-74
2024/01/18 10:17:57;;;;;;;14.20;9.52;;;;;;;;;;5102083;28;20528;-74
2024/01/18 10:20:22;;;;;;;14.27;8.97;;;;;;;;;;5107644;28;20024;-74
2024/01/18 10:22:48;;;;;;;14.90;8.77;;;;;;;;;;5101993;28;20372;-74
2024/01/18 10:25:13;;;;;;;14.20;9.70;;;;;;;;;;5105504;28;20034;-73
2024/01/18 10:27:39;;;;;;;15.85;9.05;;;;;;;;;;5104258;28;20276;-74
2024/01/18 10:30:07;;;;;;;14.82;8.30;;;;;;;;;;5103230;28;20455;-74
2024/01/18 10:32:32;;;;;;;17.45;8.82;;;;;;;;;;5105358;28;20023;-74
2024/01/18 10:34:57;;;;;;;13.10;8.13;;;;;;;;;;5102420;28;20024;-75
2024/01/18 10:37:23;;;;;;;14.10;8.13;;;;;;;;;;5105577;28;20012;-74
2024/01/18 10:39:48;;;;;;;10.70;7.10;;;;;;;;;;5103388;28;20779;-74
2024/01/18 10:42:13;;;;;;;16.52;8.30;;;;;;;;;;5104458;28;20254;-74
2024/01/18 10:44:45;;;;;;;13.27;8.60;;;;;;;;;;5105300;28;20031;-74
2024/01/18 10:47:11;;;;;;;13.25;8.02;;;;;;;;;;5103754;28;20012;-74
2024/01/18 10:49:37;;;;;;;14.02;7.80;;;;;;;;;;5104533;28;20080;-74
2024/01/18 10:52:03;;;;;;;12.98;7.63;;;;;;;;;;5104511;28;20030;-74
2024/01/18 10:54:30;;;;;;;10.25;7.32;;;;;;;;;;5105245;28;20012;-74
2024/01/18 10:56:55;;;;;;;12.27;7.30;;;;;;;;;;5068977;28;1065680;-74
2024/01/18 10:59:21;;;;;;;9.65;6.68;;;;;;;;;;5106138;28;20031;-74
2024/01/18 11:01:47;;;;;;;12.43;7.00;;;;;;;;;;5105594;28;20104;-74
2024/01/18 11:04:12;;;;;;;9.13;6.07;;;;;;;;;;5102619;28;20285;-74
2024/01/18 11:06:38;;;;;;;9.80;6.03;;;;;;;;;;5105594;28;20019;-74
2024/01/18 11:09:03;;;;;;;9.27;6.07;;;;;;;;;;5105130;28;20031;-74
2024/01/18 11:11:29;;;;;;;14.53;6.00;;;;;;;;;;5102679;28;20020;-74
2024/01/18 11:13:54;;;;;;;10.32;5.75;;;;;;;;;;5105413;28;20281;-74
2024/01/18 11:16:20;;;;;;;8.25;5.35;;;;;;;;;;5103789;28;20062;-74
2024/01/18 11:18:51;;;;;;;10.90;6.03;;;;;;;;;;5104010;28;20028;-74
2024/01/18 11:21:16;;;;;;;9.57;5.13;;;;;;;;;;5105280;28;20023;-74
2024/01/18 11:23:42;;;;;;;10.43;5.45;;;;;;;;;;5103384;28;20028;-74
2024/01/18 11:26:08;;;;;;;6.65;4.45;;;;;;;;;;5106025;28;20074;-74
2024/01/18 11:28:34;;;;;;;7.70;4.82;;;;;;;;;;5102411;28;20095;-75
2024/01/18 11:31:00;;;;;;;10.40;5.15;;;;;;;;;;5107793;28;20535;-74
2024/01/18 11:33:25;;;;;;;12.18;4.47;;;;;;;;;;5102096;28;20015;-74
2024/01/18 11:35:51;;;;;;;7.63;4.85;;;;;;;;;;5108630;28;20481;-75
2024/01/18 11:38:17;;;;;;;10.68;4.70;;;;;;;;;;5101196;28;20059;-74
2024/01/18 11:40:43;;;;;;;6.90;5.00;;;;;;;;;;5107792;28;20020;-75
2024/01/18 11:43:08;;;;;;;12.27;4.93;;;;;;;;;;5102635;28;20031;-75
2024/01/18 11:45:34;;;;;;;11.00;5.13;;;;;;;;;;5105376;28;20023;-75
2024/01/18 11:47:59;;;;;;;8.02;5.15;;;;;;;;;;5104416;28;20011;-74
2024/01/18 11:50:25;;;;;;;9.45;5.10;;;;;;;;;;5101885;28;20031;-75
2024/01/18 11:52:50;;;;;;;6.90;4.55;;;;;;;;;;5107930;28;20015;-75
2024/01/18 11:55:17;;;;;;;9.27;4.90;;;;;;;;;;5104471;28;20046;-74
2024/01/18 11:57:43;;;;;;;10.85;5.07;;;;;;;;;;5101919;28;20032;-75
2024/01/18 12:00:10;;;;;;;7.32;4.63;;;;;;;;;;5100997;28;20023;-75
2024/01/18 12:02:36;;;;;;;10.45;4.40;;;;;;;;;;5101512;28;20027;-74
2024/01/18 12:05:03;;;;;;;10.73;4.32;;;;;;;;;;5108318;28;20356;-75
2024/01/18 12:07:28;;;;;;;7.68;4.53;;;;;;;;;;5102182;28;20344;-75
2024/01/18 12:09:54;;;;;;;6.82;3.63;;;;;;;;;;5103762;28;20098;-75
2024/01/18 12:12:19;;;;;;;5.25;2.70;;;;;;;;;;5104637;28;20021;-75
2024/01/18 12:14:47;;;;;;;3.97;2.30;;;;;;;;;;5101194;28;20051;-74
2024/01/18 12:17:13;;;;;;;9.15;2.53;;;;;;;;;;5104473;28;20016;-75
2024/01/18 12:19:40;;;;;;;7.07;2.47;;;;;;;;;;5102128;28;20020;-75
2024/01/18 12:22:12;;;;;;;8.02;2.70;;;;;;;;;;5103332;28;20011;-75
2024/01/18 12:24:38;;;;;;;3.17;1.95;;;;;;;;;;5102068;28;20024;-75
2024/01/18 12:27:04;;;;;;;5.30;2.25;;;;;;;;;;5103845;28;20363;-75
2024/01/18 12:29:30;;;;;;;8.07;2.63;;;;;;;;;;5103734;28;20051;-75
2024/01/18 12:31:56;;;;;;;8.45;2.13;;;;;;;;;;5103502;28;20423;-75
2024/01/18 12:34:21;;;;;;;3.97;2.20;;;;;;;;;;5104040;28;20068;-75
2024/01/18 12:36:47;;;;;;;10.05;2.38;;;;;;;;;;5102126;28;20023;-75
2024/01/18 12:39:12;;;;;;;6.32;2.22;;;;;;;;;;5104240;28;20119;-75
2024/01/18 12:41:38;;;;;;;5.82;2.13;;;;;;;;;;5103370;28;20028;-75
2024/01/18 12:44:06;;;;;;;4.03;2.10;;;;;;;;;;5102068;28;20798;-75
2024/01/18 12:46:32;;;;;;;6.10;2.20;;;;;;;;;;5106172;28;20270;-75
2024/01/18 12:48:57;;;;;;;6.20;2.22;;;;;;;;;;5099916;28;20444;-75
2024/01/18 12:51:23;;;;;;;5.53;2.28;;;;;;;;;;5104333;28;20023;-75
2024/01/18 12:53:48;;;;;;;6.00;2.20;;;;;;;;;;5105751;28;20463;-75
2024/01/18 12:56:15;;;;;;;4.95;2.35;;;;;;;;;;5104016;28;20020;-75
2024/01/18 12:58:41;;;;;;;3.53;2.00;;;;;;;;;;5104032;28;20062;-75
2024/01/18 13:01:06;;;;;;;6.93;2.17;;;;;;;;;;5101488;28;20534;-75
2024/01/18 13:03:31;;;;;;;4.57;1.97;;;;;;;;;;5102955;28;20058;-75
2024/01/18 13:05:57;;;;;;;5.78;1.88;;;;;;;;;;5106446;28;20319;-75
2024/01/18 13:08:22;;;;;;;5.40;1.80;;;;;;;;;;5101317;28;20486;-75
2024/01/18 13:10:48;;;;;;;6.28;2.03;;;;;;;;;;5104477;28;20024;-75
2024/01/18 13:13:14;;;;;;;4.97;1.90;;;;;;;;;;5100535;28;20023;-75
2024/01/18 13:15:39;;;;;;;2.75;1.63;;;;;;;;;;5106990;28;20016;-75
2024/01/18 13:18:08;;;;;;;4.88;1.55;;;;;;;;;;5099581;28;20536;-75
2024/01/18 13:20:33;;;;;;;4.97;1.60;;;;;;;;;;5106908;28;20558;-75
2024/01/18 13:22:59;;;;;;;5.88;1.50;;;;;;;;;;5100317;28;20094;-75
2024/01/18 13:25:24;;;;;;;4.63;1.30;;;;;;;;;;5104712;28;20047;-75
2024/01/18 13:27:49;;;;;;;6.63;1.53;;;;;;;;;;5101527;28;20363;-75
2024/01/18 13:30:15;;;;;;;2.90;1.23;;;;;;;;;;5103791;28;20276;-75
2024/01/18 13:32:40;;;;;;;5.10;1.10;;;;;;;;;;5103325;28;20020;-75
2024/01/18 13:35:05;;;;;;;5.67;1.20;;;;;;;;;;5103098;28;20023;-75
2024/01/18 13:37:30;;;;;;;3.13;1.08;;;;;;;;;;5103269;28;20315;-75
2024/01/18 13:39:55;;;;;;;5.90;1.05;;;;;;;;;;5109404;28;20106;-76
2024/01/18 13:42:21;;;;;;;3.47;1.00;;;;;;;;;;5108005;28;20098;-75
2024/01/18 13:44:46;;;;;;;5.20;1.10;;;;;;;;;;5102194;28;20350;-75
2024/01/18 13:47:11;;;;;;;5.47;1.30;;;;;;;;;;5102588;28;20266;-75
2024/01/18 13:49:37;;;;;;;6.07;1.10;;;;;;;;;;5107622;28;20774;-76
2024/01/18 13:52:02;;;;;;;3.78;0.90;;;;;;;;;;5105870;28;20265;-75
2024/01/18 13:54:27;;;;;;;3.33;0.90;;;;;;;;;;5104612;28;20026;-75
2024/01/18 13:56:52;;;;;;;4.00;1.20;;;;;;;;;;5109486;28;20032;-76
2024/01/18 13:59:18;;;;;;;8.50;1.83;;;;;;;;;;5103794;28;20262;-75
2024/01/18 14:01:43;;;;;;;4.60;0.83;;;;;;;;;;5106967;28;20094;-75
2024/01/18 14:04:08;;;;;;;3.20;0.90;;;;;;;;;;5104749;28;20293;-75
2024/01/18 14:06:33;;;;;;;3.30;1.20;;;;;;;;;;5105692;28;20277;-75
2024/01/18 14:08:58;;;;;;;3.85;1.17;;;;;;;;;;5108790;28;20023;-75
2024/01/18 14:11:24;;;;;;;2.92;1.30;;;;;;;;;;5104529;28;20020;-75
2024/01/18 14:13:49;;;;;;;7.88;1.60;;;;;;;;;;5106254;28;20474;-75